Time;durP1;ratioP1;P1;durP2;ratioP2;P2;SDS_P1;SDS_P2;PMS_P1;PMS_P2;Temp;Humidity;BMP_temperature;BMP_pressure;BME280_temperature;BME280_humidity;BME280_pressure;Samples;Min_cycle;Max_cycle;Signal;HPM_P1;HPM_P2
2022/01/10 00:00:00;;;;;;;;;;;1.40;99.90;;;;;;5075885;28;19967;-79
2022/01/10 00:02:25;;;;;;;;;;;1.40;99.90;;;;;;5076281;28;19924;-79
2022/01/10 00:04:51;;;;;;;;;;;1.40;99.90;;;;;;5075504;28;19924;-79
2022/01/10 00:07:16;;;;;;;;;;;1.30;99.90;;;;;;5075789;28;19979;-79
2022/01/10 00:09:42;;;;;;;;;;;1.30;99.90;;;;;;5078244;28;19924;-79
2022/01/10 00:12:08;;;;;;;;;;;1.30;99.90;;;;;;5095884;28;19924;-79
2022/01/10 00:14:33;;;;;;;;;;;1.30;99.90;;;;;;5095622;28;19963;-80
2022/01/10 00:16:59;;;;;;;;;;;1.30;99.90;;;;;;5075531;28;19924;-79
2022/01/10 00:19:24;;;;;;;;;;;1.30;99.90;;;;;;5075537;28;19931;-79
2022/01/10 00:21:50;;;;;;;;;;;1.20;99.90;;;;;;5075355;28;19931;-79
2022/01/10 00:24:15;;;;;;;;;;;1.10;99.90;;;;;;5075721;28;19947;-79
2022/01/10 00:26:41;;;;;;;;;;;1.00;99.90;;;;;;5057261;28;19929;-79
2022/01/10 00:29:06;;;;;;;;;;;1.00;99.90;;;;;;5075480;28;20017;-79
2022/01/10 00:31:32;;;;;;;;;;;1.00;99.90;;;;;;5075241;28;20340;-79
2022/01/10 00:33:57;;;;;;;;;;;1.00;99.90;;;;;;5075613;28;19932;-79
2022/01/10 00:36:25;;;;;;;;;;;0.90;99.90;;;;;;5056847;28;19920;-79
2022/01/10 00:38:50;;;;;;;;;;;0.80;99.90;;;;;;5075356;28;20290;-79
2022/01/10 00:41:16;;;;;;;;;;;0.80;99.90;;;;;;5075241;28;20014;-79
2022/01/10 00:43:45;;;;;;;;;;;0.80;99.90;;;;;;5075158;28;19925;-79
2022/01/10 00:46:11;;;;;;;;;;;0.70;99.90;;;;;;5074166;28;19925;-79
2022/01/10 00:48:37;;;;;;;;;;;0.70;99.90;;;;;;5075020;28;20007;-79
2022/01/10 00:51:02;;;;;;;;;;;0.70;99.90;;;;;;5074832;28;20401;-79
2022/01/10 00:53:28;;;;;;;;;;;0.70;99.90;;;;;;5075027;28;19924;-79
2022/01/10 00:55:54;;;;;;;;;;;0.70;99.90;;;;;;5074832;28;20321;-79
2022/01/10 00:58:19;;;;;;;;;;;0.70;99.90;;;;;;5074603;28;19985;-79
2022/01/10 01:00:45;;;;;;;;;;;0.70;99.90;;;;;;5073397;28;19925;-79
2022/01/10 01:03:10;;;;;;;;;;;0.60;99.90;;;;;;5074705;28;19925;-79
2022/01/10 01:05:41;;;;;;;;;;;0.60;99.90;;;;;;5073315;28;19928;-79
2022/01/10 01:08:08;;;;;;;;;;;0.60;99.90;;;;;;5074657;28;19929;-79
2022/01/10 01:13:23;;;;;;;;;;;0.50;99.90;;;;;;5074336;28;19925;-79
2022/01/10 01:26:43;;;;;;;;;;;0.50;99.90;;;;;;5012280;28;20434;-79
2022/01/10 01:29:10;;;;;;;;;;;0.50;99.90;;;;;;5012478;28;19984;-79
2022/01/10 01:31:36;;;;;;;;;;;0.60;99.90;;;;;;5012344;28;19973;-79
2022/01/10 01:34:02;;;;;;;;;;;0.60;99.90;;;;;;5031965;28;20031;-79
2022/01/10 01:36:29;;;;;;;;;;;0.60;99.90;;;;;;5032271;28;20359;-79
2022/01/10 01:38:55;;;;;;;;;;;0.50;99.90;;;;;;5031904;28;20023;-79
2022/01/10 01:41:36;;;;;;;;;;;0.50;99.90;;;;;;5031930;28;20016;-79
2022/01/10 01:44:02;;;;;;;;;;;0.50;99.90;;;;;;5031959;28;19948;-79
2022/01/10 01:46:29;;;;;;;;;;;0.50;99.90;;;;;;5031845;28;19945;-79
2022/01/10 01:48:55;;;;;;;;;;;0.50;99.90;;;;;;5015117;28;19925;-79
2022/01/10 01:51:20;;;;;;;;;;;0.50;99.90;;;;;;5015094;28;19965;-79
2022/01/10 01:53:46;;;;;;;;;;;0.50;99.90;;;;;;5015356;28;19991;-79
2022/01/10 01:56:12;;;;;;;;;;;0.40;99.90;;;;;;5015251;28;19929;-79
2022/01/10 01:58:39;;;;;;;;;;;0.40;99.90;;;;;;5035268;28;19925;-79
2022/01/10 02:01:05;;;;;;;;;;;0.40;99.90;;;;;;5035191;28;19925;-79
2022/01/10 02:03:33;;;;;;;;;;;0.40;99.90;;;;;;5077711;28;20408;-79
2022/01/10 02:05:58;;;;;;;;;;;0.40;99.90;;;;;;5079136;28;19932;-79
2022/01/10 02:08:24;;;;;;;;;;;0.30;99.90;;;;;;5097898;28;19924;-79
2022/01/10 02:10:49;;;;;;;;;;;0.30;99.90;;;;;;5078973;28;19924;-79
2022/01/10 02:13:15;;;;;;;;;;;0.30;99.90;;;;;;5097871;28;20386;-79
2022/01/10 02:16:01;;;;;;;;;;;0.30;99.90;;;;;;5097359;28;19924;-79
2022/01/10 02:18:28;;;;;;;;;;;0.30;99.90;;;;;;5097717;28;20298;-79
2022/01/10 02:20:54;;;;;;;;;;;0.30;99.90;;;;;;5097458;28;19924;-79
2022/01/10 02:23:19;;;;;;;;;;;0.30;99.90;;;;;;5097238;28;19931;-79
2022/01/10 02:25:45;;;;;;;;;;;0.30;99.90;;;;;;5077481;28;19924;-79
2022/01/10 02:28:11;;;;;;;;;;;0.30;99.90;;;;;;5077060;28;19928;-79
2022/01/10 02:30:37;;;;;;;;;;;0.20;99.90;;;;;;5077222;28;19951;-79
2022/01/10 02:33:02;;;;;;;;;;;0.20;99.90;;;;;;5060547;28;19924;-79
2022/01/10 02:35:31;;;;;;;;;;;0.20;99.90;;;;;;5078031;28;19931;-79
2022/01/10 02:37:57;;;;;;;;;;;0.20;99.90;;;;;;5076034;28;19928;-79
2022/01/10 02:40:25;;;;;;;;;;;0.20;99.90;;;;;;5076786;28;20293;-79
2022/01/10 02:42:51;;;;;;;;;;;0.20;99.90;;;;;;5075986;28;20283;-79
2022/01/10 02:45:17;;;;;;;;;;;0.20;99.90;;;;;;5077196;28;19935;-79
2022/01/10 02:47:42;;;;;;;;;;;0.20;99.90;;;;;;5075621;28;19925;-79
2022/01/10 02:50:08;;;;;;;;;;;0.30;99.90;;;;;;5103748;28;19946;-79
2022/01/10 02:52:34;;;;;;;;;;;0.30;99.90;;;;;;5102742;28;19924;-79
2022/01/10 02:55:01;;;;;;;;;;;0.30;99.90;;;;;;5117706;28;20382;-79
2022/01/10 02:57:29;;;;;;;;;;;0.30;99.90;;;;;;5117958;28;19927;-79
2022/01/10 02:59:55;;;;;;;;;;;0.30;99.90;;;;;;5117959;28;20344;-79
2022/01/10 03:02:24;;;;;;;;;;;0.30;99.90;;;;;;5118010;28;19969;-79
2022/01/10 03:04:49;;;;;;;;;;;0.20;99.90;;;;;;5117728;28;19967;-79
2022/01/10 03:07:16;;;;;;;;;;;0.10;99.90;;;;;;5117170;28;19931;-79
2022/01/10 03:09:41;;;;;;;;;;;0.10;99.90;;;;;;5117376;28;20339;-79
2022/01/10 03:12:09;;;;;;;;;;;0.10;99.90;;;;;;5118254;28;19963;-79
2022/01/10 03:14:35;;;;;;;;;;;0.00;99.90;;;;;;5118421;28;19933;-79
2022/01/10 03:17:01;;;;;;;;;;;0.00;99.90;;;;;;5118158;28;20037;-79
2022/01/10 03:19:26;;;;;;;;;;;0.00;99.90;;;;;;5117634;28;19932;-79
2022/01/10 03:21:52;;;;;;;;;;;0.00;99.90;;;;;;5118071;28;19923;-79
2022/01/10 03:24:17;;;;;;;;;;;-0.10;99.90;;;;;;5118082;28;19923;-79
2022/01/10 03:26:43;;;;;;;;;;;-0.10;99.90;;;;;;5099873;28;19931;-79
2022/01/10 03:29:08;;;;;;;;;;;0.00;99.90;;;;;;5117953;28;19932;-79
2022/01/10 03:31:34;;;;;;;;;;;-0.10;99.90;;;;;;5117968;28;20007;-80
2022/01/10 03:33:59;;;;;;;;;;;-0.10;99.90;;;;;;5118363;28;20014;-79
2022/01/10 03:36:25;;;;;;;;;;;-0.10;99.90;;;;;;5118139;28;20350;-79
2022/01/10 03:38:50;;;;;;;;;;;-0.10;99.90;;;;;;5118651;28;20366;-79
2022/01/10 03:41:16;;;;;;;;;;;-0.10;99.90;;;;;;5118806;28;20004;-79
2022/01/10 03:43:41;;;;;;;;;;;-0.10;99.90;;;;;;5118440;28;19957;-79
2022/01/10 03:46:07;;;;;;;;;;;-0.20;99.90;;;;;;5118166;28;19924;-79
2022/01/10 03:48:32;;;;;;;;;;;-0.10;99.90;;;;;;5118467;28;19920;-79
2022/01/10 03:50:58;;;;;;;;;;;-0.10;99.90;;;;;;5118799;28;19924;-79
2022/01/10 03:53:23;;;;;;;;;;;-0.10;99.90;;;;;;5118305;28;19978;-80
2022/01/10 03:55:52;;;;;;;;;;;-0.10;99.90;;;;;;5099981;28;20250;-79
2022/01/10 03:58:17;;;;;;;;;;;-0.10;99.90;;;;;;5100438;28;19924;-79
2022/01/10 04:00:43;;;;;;;;;;;-0.10;99.90;;;;;;5118698;28;19931;-79
2022/01/10 04:03:08;;;;;;;;;;;-0.10;99.90;;;;;;5118420;28;19924;-79
2022/01/10 04:05:34;;;;;;;;;;;-0.10;99.90;;;;;;5099767;28;19924;-80
2022/01/10 04:08:00;;;;;;;;;;;-0.10;99.90;;;;;;5118436;28;19924;-79
2022/01/10 04:10:26;;;;;;;;;;;-0.10;99.90;;;;;;5118169;28;19924;-79
2022/01/10 04:12:52;;;;;;;;;;;-0.10;99.90;;;;;;5119236;28;19948;-79
2022/01/10 04:15:17;;;;;;;;;;;-0.10;99.90;;;;;;5100377;28;19981;-79
2022/01/10 04:17:43;;;;;;;;;;;-0.20;99.90;;;;;;5118212;28;19932;-79
2022/01/10 04:20:09;;;;;;;;;;;-0.20;99.90;;;;;;5100050;28;19953;-79
2022/01/10 04:22:34;;;;;;;;;;;-0.20;99.90;;;;;;5122614;28;19923;-79
2022/01/10 04:25:00;;;;;;;;;;;-0.20;99.90;;;;;;5102975;28;19987;-79
2022/01/10 04:27:26;;;;;;;;;;;-0.10;99.90;;;;;;5119366;28;20285;-79
2022/01/10 04:29:52;;;;;;;;;;;-0.20;99.90;;;;;;5119335;28;19924;-79
2022/01/10 04:32:17;;;;;;;;;;;-0.20;99.90;;;;;;5119162;28;19924;-80
2022/01/10 04:34:44;;;;;;;;;;;-0.20;99.90;;;;;;5119644;28;19976;-79
2022/01/10 04:37:09;;;;;;;;;;;-0.10;99.90;;;;;;5119579;28;19924;-79
2022/01/10 04:39:35;;;;;;;;;;;-0.20;99.90;;;;;;5119253;28;20010;-79
2022/01/10 04:42:01;;;;;;;;;;;-0.10;99.90;;;;;;5101260;28;19924;-79
2022/01/10 04:44:26;;;;;;;;;;;-0.10;99.90;;;;;;5119831;28;19923;-79
2022/01/10 04:46:53;;;;;;;;;;;-0.10;99.90;;;;;;5101350;28;19977;-79
2022/01/10 04:49:24;;;;;;;;;;;-0.20;99.90;;;;;;5122891;28;19946;-79
2022/01/10 04:51:49;;;;;;;;;;;-0.20;99.90;;;;;;5101344;28;19927;-80
2022/01/10 04:54:15;;;;;;;;;;;-0.20;99.90;;;;;;5119896;28;20334;-79
2022/01/10 04:56:41;;;;;;;;;;;-0.20;99.90;;;;;;5101744;28;19920;-80
2022/01/10 04:59:06;;;;;;;;;;;-0.30;99.90;;;;;;5119889;28;19924;-79
2022/01/10 05:01:32;;;;;;;;;;;-0.30;99.90;;;;;;5119922;28;19923;-79
2022/01/10 05:03:58;;;;;;;;;;;-0.30;99.90;;;;;;5119619;28;19945;-79
2022/01/10 05:06:23;;;;;;;;;;;-0.30;99.90;;;;;;5119918;28;19934;-80
2022/01/10 05:08:49;;;;;;;;;;;-0.40;99.90;;;;;;5120250;28;19942;-79
2022/01/10 05:11:16;;;;;;;;;;;-0.30;99.90;;;;;;5108031;28;19946;-79
2022/01/10 05:13:42;;;;;;;;;;;-0.30;99.90;;;;;;5099631;28;19935;-79
2022/01/10 05:16:07;;;;;;;;;;;-0.30;99.90;;;;;;5100253;28;20005;-80
2022/01/10 05:18:33;;;;;;;;;;;-0.30;99.90;;;;;;5081638;28;20413;-79
2022/01/10 05:20:58;;;;;;;;;;;-0.40;99.90;;;;;;5100289;28;19967;-80
2022/01/10 05:23:24;;;;;;;;;;;-0.40;99.90;;;;;;5092088;28;19978;-79
2022/01/10 05:25:49;;;;;;;;;;;-0.40;99.90;;;;;;5087466;28;19984;-79
2022/01/10 05:28:17;;;;;;;;;;;-0.40;99.90;;;;;;5089183;28;19947;-80
2022/01/10 05:30:43;;;;;;;;;;;-0.40;99.90;;;;;;5080020;28;19940;-79
2022/01/10 05:33:08;;;;;;;;;;;-0.40;99.90;;;;;;5084378;28;19924;-80
2022/01/10 05:35:39;;;;;;;;;;;-0.40;99.90;;;;;;5103950;28;19924;-80
2022/01/10 05:38:05;;;;;;;;;;;-0.50;99.90;;;;;;5085611;28;19926;-79
2022/01/10 05:40:30;;;;;;;;;;;-0.40;99.90;;;;;;5103290;28;19946;-80
2022/01/10 05:42:57;;;;;;;;;;;-0.40;99.90;;;;;;5100673;28;20335;-79
2022/01/10 05:45:23;;;;;;;;;;;-0.40;99.90;;;;;;5102698;28;19924;-80
2022/01/10 05:47:49;;;;;;;;;;;-0.40;99.90;;;;;;5102628;28;19977;-80
2022/01/10 05:50:19;;;;;;;;;;;-0.50;99.90;;;;;;5102574;28;19925;-80
2022/01/10 05:52:44;;;;;;;;;;;-0.10;99.90;;;;;;5103548;28;20281;-79
2022/01/10 05:55:10;;;;;;;;;;;-0.50;99.90;;;;;;5102994;28;19931;-80
2022/01/10 05:57:36;;;;;;;;;;;-0.50;99.90;;;;;;5103439;28;19935;-80
2022/01/10 06:00:02;;;;;;;;;;;-0.50;99.90;;;;;;5103543;28;19931;-80
2022/01/10 06:02:28;;;;;;;;;;;-0.50;99.90;;;;;;5085261;28;19924;-80
2022/01/10 06:04:54;;;;;;;;;;;-0.50;99.90;;;;;;5112514;28;20007;-80
2022/01/10 06:07:20;;;;;;;;;;;-0.40;99.90;;;;;;5115595;28;19931;-80
2022/01/10 06:09:45;;;;;;;;;;;-0.40;99.90;;;;;;5106912;28;19931;-80
2022/01/10 06:12:11;;;;;;;;;;;-0.50;99.90;;;;;;5103725;28;19975;-79
2022/01/10 06:14:36;;;;;;;;;;;-0.40;99.90;;;;;;5085288;28;19954;-80
2022/01/10 06:17:02;;;;;;;;;;;-0.40;99.90;;;;;;5103586;28;19924;-79
2022/01/10 06:19:27;;;;;;;;;;;-0.40;99.90;;;;;;5102991;28;19924;-80
2022/01/10 06:21:53;;;;;;;;;;;-0.40;99.90;;;;;;5084741;28;20019;-80
2022/01/10 06:24:18;;;;;;;;;;;-0.40;99.90;;;;;;5103470;28;19924;-80
2022/01/10 06:26:44;;;;;;;;;;;-0.40;99.90;;;;;;5102594;28;19928;-79
2022/01/10 06:29:09;;;;;;;;;;;-0.40;99.90;;;;;;5102916;28;19970;-80
2022/01/10 06:31:35;;;;;;;;;;;-0.40;99.90;;;;;;5089246;28;19963;-80
2022/01/10 06:34:00;;;;;;;;;;;-0.40;99.90;;;;;;5103032;28;19930;-81
2022/01/10 06:36:26;;;;;;;;;;;-0.40;99.90;;;;;;5084939;28;19928;-81
2022/01/10 06:38:51;;;;;;;;;;;-0.40;99.90;;;;;;5103289;28;20282;-80
2022/01/10 06:41:17;;;;;;;;;;;-0.40;99.90;;;;;;5070157;28;19925;-80
2022/01/10 06:43:42;;;;;;;;;;;-0.40;99.90;;;;;;5063068;28;19925;-81
2022/01/10 06:46:08;;;;;;;;;;;-0.50;99.90;;;;;;5082573;28;19924;-80
2022/01/10 06:48:34;;;;;;;;;;;-0.50;99.90;;;;;;5064083;28;19931;-80
2022/01/10 06:50:59;;;;;;;;;;;-0.50;99.90;;;;;;5087263;28;19971;-80
2022/01/10 06:53:25;;;;;;;;;;;-0.40;99.90;;;;;;5064437;28;19924;-81
2022/01/10 06:55:50;;;;;;;;;;;-0.40;99.90;;;;;;5082139;28;19932;-81
2022/01/10 06:58:16;;;;;;;;;;;-0.40;99.90;;;;;;5082513;28;20012;-81
2022/01/10 07:00:42;;;;;;;;;;;-0.40;99.90;;;;;;5064088;28;19928;-80
2022/01/10 07:03:07;;;;;;;;;;;-0.40;99.90;;;;;;5082595;28;19932;-80
2022/01/10 07:05:33;;;;;;;;;;;-0.40;99.90;;;;;;5081893;28;19924;-81
2022/01/10 07:07:59;;;;;;;;;;;-0.40;99.90;;;;;;5081756;28;19963;-81
2022/01/10 07:10:24;;;;;;;;;;;-0.40;99.90;;;;;;5081611;28;19929;-81
2022/01/10 07:12:50;;;;;;;;;;;-0.40;99.90;;;;;;5081984;28;20310;-81
2022/01/10 07:15:15;;;;;;;;;;;-0.40;99.90;;;;;;5082407;28;20313;-81
2022/01/10 07:17:41;;;;;;;;;;;-0.40;99.90;;;;;;5082060;28;19931;-81
2022/01/10 07:20:07;;;;;;;;;;;-0.40;99.90;;;;;;5080387;28;20459;-81
2022/01/10 07:22:32;;;;;;;;;;;-0.40;99.90;;;;;;5080115;28;19929;-80
2022/01/10 07:24:58;;;;;;;;;;;-0.50;99.90;;;;;;5081506;28;19947;-81
2022/01/10 07:27:23;;;;;;;;;;;-0.40;99.90;;;;;;5081433;28;19924;-81
2022/01/10 07:29:50;;;;;;;;;;;-0.40;99.90;;;;;;5082159;28;20393;-81
2022/01/10 07:32:16;;;;;;;;;;;-0.40;99.90;;;;;;5081086;28;20105;-81
2022/01/10 07:34:42;;;;;;;;;;;-0.40;99.90;;;;;;5080931;28;20023;-81
2022/01/10 07:37:07;;;;;;;;;;;-0.50;99.90;;;;;;5081231;28;19975;-81
2022/01/10 07:39:33;;;;;;;;;;;-0.50;99.90;;;;;;5080728;28;19971;-81
2022/01/10 07:41:59;;;;;;;;;;;-0.50;99.90;;;;;;5080945;28;19928;-81
2022/01/10 07:44:24;;;;;;;;;;;-0.50;99.90;;;;;;5081605;28;20268;-81
2022/01/10 07:46:50;;;;;;;;;;;-0.50;99.90;;;;;;5081310;28;19955;-81
2022/01/10 07:49:15;;;;;;;;;;;-0.50;99.90;;;;;;5081728;28;20316;-81
2022/01/10 07:51:41;;;;;;;;;;;-0.50;99.90;;;;;;5080042;28;20003;-81
2022/01/10 07:54:06;;;;;;;;;;;-0.60;99.90;;;;;;5080637;28;19978;-80
2022/01/10 07:56:32;;;;;;;;;;;-0.60;99.90;;;;;;5080106;28;19959;-81
2022/01/10 07:58:57;;;;;;;;;;;-0.60;99.90;;;;;;5100926;28;19924;-81
2022/01/10 08:01:23;;;;;;;;;;;-0.60;99.90;;;;;;5100599;28;20015;-81
2022/01/10 08:03:52;;;;;;;;;;;-0.60;99.90;;;;;;5082180;28;20339;-81
2022/01/10 08:06:18;;;;;;;;;;;-0.60;99.90;;;;;;5100661;28;19931;-82
2022/01/10 08:08:44;;;;;;;;;;;-0.60;99.90;;;;;;5100349;28;19920;-81
2022/01/10 08:11:09;;;;;;;;;;;-0.60;99.90;;;;;;5100028;28;19970;-81
2022/01/10 08:13:35;;;;;;;;;;;-0.60;99.90;;;;;;5081811;28;19931;-81
2022/01/10 08:16:00;;;;;;;;;;;-0.50;99.90;;;;;;5100684;28;19919;-81
2022/01/10 08:18:30;;;;;;;;;;;-0.50;99.90;;;;;;5115611;28;19928;-81
2022/01/10 08:20:56;;;;;;;;;;;-0.50;99.90;;;;;;5100513;28;20011;-81
2022/01/10 08:23:21;;;;;;;;;;;-0.50;99.90;;;;;;5100427;28;19959;-81
2022/01/10 08:25:47;;;;;;;;;;;-0.50;99.90;;;;;;5100021;28;19924;-81
2022/01/10 08:28:12;;;;;;;;;;;-0.40;99.90;;;;;;5081987;28;19920;-81
2022/01/10 08:30:38;;;;;;;;;;;-0.50;99.90;;;;;;5100319;28;19924;-81
2022/01/10 08:33:03;;;;;;;;;;;-0.50;99.90;;;;;;5100430;28;19976;-81
2022/01/10 08:35:29;;;;;;;;;;;-0.40;99.90;;;;;;5100208;28;19992;-81
2022/01/10 08:37:54;;;;;;;;;;;-0.40;99.90;;;;;;5099998;28;20434;-81
2022/01/10 08:40:20;;;;;;;;;;;-0.50;99.90;;;;;;5100293;28;20416;-81
2022/01/10 08:42:46;;;;;;;;;;;-0.40;99.90;;;;;;5099778;28;20388;-81
2022/01/10 08:45:11;;;;;;;;;;;-0.40;99.90;;;;;;5081394;28;20369;-81
2022/01/10 08:47:38;;;;;;;;;;;-0.40;99.90;;;;;;5081646;28;19924;-81
2022/01/10 08:50:04;;;;;;;;;;;-0.40;99.90;;;;;;5099186;28;19928;-81
2022/01/10 08:52:30;;;;;;;;;;;-0.40;99.90;;;;;;5101928;28;19966;-81
2022/01/10 08:54:56;;;;;;;;;;;-0.30;99.90;;;;;;5119971;28;19973;-81
2022/01/10 08:57:21;;;;;;;;;;;-0.30;99.90;;;;;;5102600;28;19935;-81
2022/01/10 08:59:47;;;;;;;;;;;-0.20;99.90;;;;;;5101949;28;19923;-81
2022/01/10 09:02:13;;;;;;;;;;;-0.20;99.90;;;;;;5101931;28;19923;-81
2022/01/10 09:04:39;;;;;;;;;;;-0.20;99.90;;;;;;5120321;28;19976;-81
2022/01/10 09:07:08;;;;;;;;;;;-0.10;99.90;;;;;;5121241;28;20387;-81
2022/01/10 09:09:34;;;;;;;;;;;-0.10;99.90;;;;;;5136861;28;19931;-81
2022/01/10 09:11:59;;;;;;;;;;;-0.10;99.90;;;;;;5116265;28;19930;-81
2022/01/10 09:14:25;;;;;;;;;;;-0.10;99.90;;;;;;5117163;28;19963;-80
2022/01/10 09:16:50;;;;;;;;;;;0.00;99.90;;;;;;5086006;28;19924;-81
2022/01/10 09:19:16;;;;;;;;;;;0.00;99.90;;;;;;5085751;28;20026;-81
2022/01/10 09:21:41;;;;;;;;;;;0.10;99.90;;;;;;5086282;28;19924;-80
2022/01/10 09:24:07;;;;;;;;;;;0.10;99.90;;;;;;5086392;28;19924;-81
2022/01/10 09:26:33;;;;;;;;;;;0.10;99.90;;;;;;5103765;28;20319;-81
2022/01/10 09:28:59;;;;;;;;;;;0.10;99.90;;;;;;5103827;28;19924;-81
2022/01/10 09:31:25;;;;;;;;;;;0.20;99.90;;;;;;5085656;28;20010;-81
2022/01/10 09:33:54;;;;;;;;;;;0.10;99.90;;;;;;5104344;28;19967;-81
2022/01/10 09:36:20;;;;;;;;;;;0.20;99.90;;;;;;5104228;28;19990;-81
2022/01/10 09:38:46;;;;;;;;;;;0.20;99.90;;;;;;5102878;28;19940;-81
2022/01/10 09:41:11;;;;;;;;;;;0.30;99.90;;;;;;5104103;28;19973;-81
2022/01/10 09:43:37;;;;;;;;;;;0.30;99.90;;;;;;5103312;28;19939;-81
2022/01/10 09:46:03;;;;;;;;;;;0.40;99.90;;;;;;5102910;28;19924;-82
2022/01/10 09:48:28;;;;;;;;;;;0.80;99.90;;;;;;5085151;28;19920;-81
2022/01/10 09:50:54;;;;;;;;;;;0.40;99.90;;;;;;5084196;28;19964;-80
2022/01/10 09:53:21;;;;;;;;;;;0.50;99.90;;;;;;5102900;28;20275;-81
2022/01/10 09:55:48;;;;;;;;;;;0.50;99.90;;;;;;5105089;28;20282;-80
2022/01/10 09:58:13;;;;;;;;;;;0.50;99.90;;;;;;5084325;28;19924;-81
2022/01/10 10:00:39;;;;;;;;;;;0.50;99.90;;;;;;5103511;28;19977;-81
2022/01/10 10:03:05;;;;;;;;;;;0.60;99.90;;;;;;5084630;28;19924;-81
2022/01/10 10:05:31;;;;;;;;;;;0.60;99.90;;;;;;5103325;28;19993;-80
2022/01/10 10:07:57;;;;;;;;;;;0.60;99.90;;;;;;5084348;28;20374;-80
2022/01/10 10:10:22;;;;;;;;;;;0.70;99.90;;;;;;5102923;28;19924;-80
2022/01/10 10:12:49;;;;;;;;;;;0.80;99.90;;;;;;5102323;28;20422;-81
2022/01/10 10:15:17;;;;;;;;;;;0.90;99.90;;;;;;5102533;28;19924;-81
2022/01/10 10:17:43;;;;;;;;;;;0.90;99.90;;;;;;5101699;28;19924;-81
2022/01/10 10:20:15;;;;;;;;;;;0.90;99.90;;;;;;5100957;28;19932;-81
2022/01/10 10:22:42;;;;;;;;;;;0.90;99.90;;;;;;5102294;28;20019;-80
2022/01/10 10:25:08;;;;;;;;;;;1.00;99.90;;;;;;5101898;28;20009;-80
2022/01/10 10:30:57;;;;;;;;;;;1.10;99.90;;;;;;5100983;28;19923;-81
2022/01/10 10:33:23;;;;;;;;;;;1.20;99.90;;;;;;5101243;28;19924;-80
2022/01/10 10:36:03;;;;;;;;;;;1.20;99.90;;;;;;5101106;28;19924;-80
2022/01/10 10:38:29;;;;;;;;;;;1.30;99.90;;;;;;5100972;28;19968;-80
2022/01/10 10:40:58;;;;;;;;;;;1.50;99.90;;;;;;5087736;28;19956;-80
2022/01/10 10:43:24;;;;;;;;;;;1.50;99.90;;;;;;5102129;28;19987;-80
2022/01/10 10:45:49;;;;;;;;;;;1.50;99.90;;;;;;5102570;28;19951;-80
2022/01/10 10:48:16;;;;;;;;;;;1.60;99.90;;;;;;5102515;28;19950;-80
2022/01/10 10:50:44;;;;;;;;;;;1.60;99.90;;;;;;5101868;28;19924;-80
2022/01/10 10:53:13;;;;;;;;;;;1.60;99.90;;;;;;5102237;28;19971;-80
2022/01/10 10:55:41;;;;;;;;;;;1.70;99.90;;;;;;5101947;28;20007;-80
2022/01/10 11:01:28;;;;;;;;;;;1.80;99.90;;;;;;5104084;28;19919;-80
2022/01/10 11:03:54;;;;;;;;;;;1.80;99.90;;;;;;5102458;28;19960;-80
2022/01/10 11:06:20;;;;;;;;;;;1.90;99.90;;;;;;5083753;28;19931;-80
2022/01/10 11:08:46;;;;;;;;;;;2.00;99.90;;;;;;5102249;28;19919;-80
2022/01/10 11:11:16;;;;;;;;;;;2.00;99.90;;;;;;5083394;28;20046;-80
2022/01/10 11:13:42;;;;;;;;;;;2.00;99.90;;;;;;5102480;28;19924;-80
2022/01/10 11:16:08;;;;;;;;;;;2.10;99.90;;;;;;5101849;28;20058;-80
2022/01/10 11:18:33;;;;;;;;;;;2.20;99.90;;;;;;5101927;28;19924;-80
2022/01/10 11:20:59;;;;;;;;;;;2.20;99.90;;;;;;5102008;28;19994;-81
2022/01/10 11:23:26;;;;;;;;;;;2.20;99.90;;;;;;5101044;28;19924;-80
2022/01/10 11:25:51;;;;;;;;;;;2.30;99.90;;;;;;5101793;28;19977;-80
2022/01/10 11:31:41;;;;;;;;;;;2.50;99.90;;;;;;5101059;28;19973;-80
2022/01/10 11:34:06;;;;;;;;;;;2.50;99.90;;;;;;5082689;28;19928;-80
2022/01/10 11:36:32;;;;;;;;;;;2.60;99.90;;;;;;5101327;28;19928;-80
2022/01/10 11:38:59;;;;;;;;;;;2.60;99.90;;;;;;5101704;28;20010;-80
2022/01/10 11:41:31;;;;;;;;;;;2.70;99.90;;;;;;5101770;28;19931;-80
2022/01/10 11:44:06;;;;;;;;;;;2.70;99.90;;;;;;5099587;28;20375;-80
2022/01/10 11:46:40;;;;;;;;;;;2.60;99.90;;;;;;5099768;28;19928;-80
2022/01/10 11:49:08;;;;;;;;;;;2.80;99.90;;;;;;5098958;28;20275;-81
2022/01/10 11:51:37;;;;;;;;;;;2.90;99.90;;;;;;5079827;28;19924;-81
2022/01/10 11:54:22;;;;;;;;;;;2.90;99.90;;;;;;5099831;28;19924;-80
2022/01/10 11:56:49;;;;;;;;;;;3.00;99.90;;;;;;5098290;28;19926;-81
2022/01/10 11:59:15;;;;;;;;;;;3.00;99.90;;;;;;5099880;28;19978;-80
2022/01/10 12:01:42;;;;;;;;;;;3.00;99.90;;;;;;5101044;28;19920;-80
2022/01/10 12:04:07;;;;;;;;;;;3.10;99.90;;;;;;5097267;28;20286;-81
2022/01/10 12:06:33;;;;;;;;;;;3.10;99.90;;;;;;5098042;28;19920;-81
2022/01/10 12:08:59;;;;;;;;;;;3.20;99.90;;;;;;5079617;28;19928;-81
2022/01/10 12:11:26;;;;;;;;;;;3.30;99.90;;;;;;5097816;28;20290;-81
2022/01/10 12:13:53;;;;;;;;;;;3.30;99.90;;;;;;5096672;28;19924;-81
2022/01/10 12:16:19;;;;;;;;;;;3.30;99.90;;;;;;5097338;28;19983;-81
2022/01/10 12:18:45;;;;;;;;;;;3.30;99.90;;;;;;5097987;28;19969;-80
2022/01/10 12:21:11;;;;;;;;;;;3.40;99.90;;;;;;5112437;22;19924;-81
2022/01/10 12:23:37;;;;;;;;;;;3.40;99.90;;;;;;5064013;23;19925;-80
2022/01/10 12:26:02;;;;;;;;;;;3.50;99.90;;;;;;5077471;23;20389;-81
2022/01/10 12:28:28;;;;;;;;;;;3.50;99.90;;;;;;5017411;22;1915444;-81
2022/01/10 12:30:55;;;;;;;;;;;3.50;99.90;;;;;;5069715;23;19931;-80
2022/01/10 12:33:20;;;;;;;;;;;3.60;99.90;;;;;;5077343;22;19932;-81
2022/01/10 12:35:46;;;;;;;;;;;3.70;99.90;;;;;;5076727;22;19924;-80
2022/01/10 12:38:12;;;;;;;;;;;3.70;99.90;;;;;;5093511;23;19928;-80
2022/01/10 12:40:38;;;;;;;;;;;3.80;99.90;;;;;;5076020;22;19924;-80
2022/01/10 12:43:03;;;;;;;;;;;3.90;99.90;;;;;;5102762;22;19924;-80
2022/01/10 12:45:36;;;;;;;;;;;3.90;99.90;;;;;;5087261;22;19928;-79
2022/01/10 12:48:02;;;;;;;;;;;4.00;99.90;;;;;;5079488;28;20346;-80
2022/01/10 12:50:28;;;;;;;;;;;4.10;99.90;;;;;;5068737;23;19924;-80
2022/01/10 12:52:54;;;;;;;;;;;4.10;99.90;;;;;;5079516;28;19931;-81
2022/01/10 12:55:20;;;;;;;;;;;4.70;99.90;;;;;;5066895;22;19932;-80
2022/01/10 12:57:49;;;;;;;;;;;4.30;99.90;;;;;;5072331;22;20286;-79
2022/01/10 13:00:15;;;;;;;;;;;4.30;99.90;;;;;;5104417;22;19932;-80
2022/01/10 13:02:40;;;;;;;;;;;4.40;99.90;;;;;;5081092;28;20282;-80
2022/01/10 13:05:07;;;;;;;;;;;4.40;99.90;;;;;;5079811;28;19931;-79
2022/01/10 13:07:34;;;;;;;;;;;4.40;99.90;;;;;;5063103;28;20038;-79
2022/01/10 13:10:05;;;;;;;;;;;5.00;99.90;;;;;;5096357;28;19925;-79
2022/01/10 13:12:31;;;;;;;;;;;4.60;99.90;;;;;;5079591;28;20006;-79
2022/01/10 13:15:07;;;;;;;;;;;4.50;99.90;;;;;;5062838;28;19960;-79
2022/01/10 13:17:33;;;;;;;;;;;4.60;99.90;;;;;;5079214;28;20033;-79
2022/01/10 13:20:01;;;;;;;;;;;4.70;99.90;;;;;;5098083;28;19924;-79
2022/01/10 13:22:30;;;;;;;;;;;5.00;99.90;;;;;;5114607;22;20289;-79
2022/01/10 13:24:57;;;;;;;;;;;5.20;99.90;;;;;;5100417;28;20306;-79
2022/01/10 13:27:25;;;;;;;;;;;5.50;99.90;;;;;;5100660;28;19945;-79
2022/01/10 13:29:51;;;;;;;;;;;6.10;99.90;;;;;;5117245;22;20297;-80
2022/01/10 13:32:17;;;;;;;;;;;6.80;99.90;;;;;;5096082;28;19928;-80
2022/01/10 13:34:43;;;;;;;;;;;7.00;99.90;;;;;;5079473;28;19924;-79
2022/01/10 13:37:09;;;;;;;;;;;7.40;99.90;;;;;;5080103;28;19920;-79
2022/01/10 13:39:35;;;;;;;;;;;8.00;99.90;;;;;;5079011;28;19924;-80
2022/01/10 13:42:02;;;;;;;;;;;7.80;99.90;;;;;;5078953;28;19979;-79
2022/01/10 13:44:28;;;;;;;;;;;8.10;99.90;;;;;;5079940;28;19963;-80
2022/01/10 13:47:05;;;;;;;;;;;8.70;99.90;;;;;;5080714;28;19924;-79
2022/01/10 13:49:31;;;;;;;;;;;8.20;99.90;;;;;;5081484;28;19927;-80
2022/01/10 13:52:10;;;;;;;;;;;8.40;99.90;;;;;;5063650;28;20398;-79
2022/01/10 13:54:35;;;;;;;;;;;8.50;99.90;;;;;;5101529;28;19924;-80
2022/01/10 13:57:33;;;;;;;;;;;8.50;99.90;;;;;;5100412;28;20294;-80
2022/01/10 14:00:18;;;;;;;;;;;8.60;99.90;;;;;;5003137;28;19926;-80
2022/01/10 14:02:44;;;;;;;;;;;8.60;99.90;;;;;;4986671;28;20323;-80
2022/01/10 14:05:13;;;;;;;;;;;8.50;99.90;;;;;;5040536;22;20036;-81
2022/01/10 14:07:39;;;;;;;;;;;8.40;99.90;;;;;;5082935;23;19969;-80
2022/01/10 14:10:11;;;;;;;;;;;8.30;99.90;;;;;;5070260;23;19924;-80
2022/01/10 14:12:37;;;;;;;;;;;8.20;99.90;;;;;;5082726;23;19924;-80
2022/01/10 14:15:03;;;;;;;;;;;7.90;99.90;;;;;;5063863;28;19947;-80
2022/01/10 14:17:28;;;;;;;;;;;7.80;99.90;;;;;;5075432;23;19967;-80
2022/01/10 14:19:54;;;;;;;;;;;7.60;99.90;;;;;;5099796;22;20036;-80
2022/01/10 14:22:19;;;;;;;;;;;7.40;99.90;;;;;;5104252;22;19924;-80
2022/01/10 14:24:45;;;;;;;;;;;7.10;99.90;;;;;;5084423;22;19946;-80
2022/01/10 14:27:11;;;;;;;;;;;7.00;99.90;;;;;;5104559;22;19931;-80
2022/01/10 14:29:36;;;;;;;;;;;6.70;99.90;;;;;;5108645;22;19937;-80
2022/01/10 14:32:03;;;;;;;;;;;6.80;99.90;;;;;;5080767;23;19986;-80
2022/01/10 14:34:28;;;;;;;;;;;6.40;99.90;;;;;;5078990;23;19928;-82
2022/01/10 14:36:54;;;;;;;;;;;6.30;99.90;;;;;;5107896;22;19940;-80
2022/01/10 14:39:19;;;;;;;;;;;6.20;99.90;;;;;;5096847;23;20462;-81
2022/01/10 14:41:46;;;;;;;;;;;6.00;99.90;;;;;;5068286;22;19960;-80